Time;durP1;ratioP1;P1;durP2;ratioP2;P2;SDS_P1;SDS_P2;PMS_P1;PMS_P2;Temp;Humidity;BMP_temperature;BMP_pressure;BME280_temperature;BME280_humidity;BME280_pressure;Samples;Min_cycle;Max_cycle;Signal;HPM_P1;HPM_P2
2022/03/31 00:03:07;;;;;;;11.70;7.58;;;;;;;;;;743738;80;26263;-71
2022/03/31 00:04:11;;;;;;;17.70;7.55;;;;;;;;;;776544;76;26256;-72
2022/03/31 00:05:18;;;;;;;11.05;7.35;;;;;;;;;;776181;76;26242;-73
2022/03/31 00:06:27;;;;;;;12.25;7.65;;;;;;;;;;776189;76;26247;-72
2022/03/31 00:07:33;;;;;;;16.20;7.83;;;;;;;;;;775337;76;26753;-72
2022/03/31 00:08:38;;;;;;;12.33;7.62;;;;;;;;;;775831;76;26245;-72
2022/03/31 00:09:42;;;;;;;16.27;8.33;;;;;;;;;;776236;76;26243;-72
2022/03/31 00:12:15;;;;;;;10.10;7.30;;;;;;;;;;786066;75;26276;-71
2022/03/31 00:13:21;;;;;;;16.20;7.70;;;;;;;;;;786031;75;26222;-74
2022/03/31 00:14:24;;;;;;;15.80;7.97;;;;;;;;;;785110;75;26725;-72
2022/03/31 00:15:27;;;;;;;16.07;7.80;;;;;;;;;;785860;75;26283;-72
2022/03/31 00:16:33;;;;;;;22.80;7.72;;;;;;;;;;786508;75;26229;-72
2022/03/31 00:17:37;;;;;;;12.40;6.17;;;;;;;;;;786755;75;26204;-71
2022/03/31 00:18:40;;;;;;;17.75;6.55;;;;;;;;;;786671;75;26268;-72
2022/03/31 00:19:43;;;;;;;13.53;6.25;;;;;;;;;;786537;75;26230;-72
2022/03/31 00:33:15;;;;;;;20.32;6.97;;;;;;;;;;761925;78;26196;-71
2022/03/31 00:34:19;;;;;;;17.85;6.60;;;;;;;;;;766826;75;26254;-73
2022/03/31 00:35:25;;;;;;;16.40;6.65;;;;;;;;;;746924;79;26216;-72
2022/03/31 00:36:28;;;;;;;13.75;7.22;;;;;;;;;;766897;77;26312;-71
2022/03/31 00:37:40;;;;;;;18.45;7.50;;;;;;;;;;746809;79;26228;-71
2022/03/31 00:39:28;;;;;;;15.35;6.90;;;;;;;;;;766994;77;26309;-71
2022/03/31 00:43:39;;;;;;;18.57;7.33;;;;;;;;;;770277;77;26699;-72
2022/03/31 00:44:45;;;;;;;15.15;7.65;;;;;;;;;;769973;77;26290;-74
2022/03/31 00:45:48;;;;;;;14.60;7.10;;;;;;;;;;769277;77;26701;-72
2022/03/31 00:46:54;;;;;;;13.58;5.87;;;;;;;;;;769206;77;26236;-71
2022/03/31 00:47:57;;;;;;;14.65;7.00;;;;;;;;;;768460;77;26677;-71
2022/03/31 00:49:04;;;;;;;17.98;7.67;;;;;;;;;;769182;77;26244;-72
2022/03/31 00:53:40;;;;;;;16.05;7.42;;;;;;;;;;735434;80;26638;-72
2022/03/31 00:54:45;;;;;;;13.25;7.03;;;;;;;;;;735389;80;26270;-70
2022/03/31 00:56:08;;;;;;;15.90;6.85;;;;;;;;;;735512;80;26267;-72
2022/03/31 00:57:21;;;;;;;12.90;6.03;;;;;;;;;;734537;81;26339;-71
2022/03/31 00:58:26;;;;;;;14.15;6.22;;;;;;;;;;734466;81;26285;-74
2022/03/31 00:59:29;;;;;;;14.25;6.53;;;;;;;;;;734545;81;26769;-71
2022/03/31 01:02:32;;;;;;;17.00;7.45;;;;;;;;;;753641;78;26241;-70
2022/03/31 01:03:37;;;;;;;18.82;7.35;;;;;;;;;;740840;80;26720;-72
2022/03/31 01:04:41;;;;;;;12.85;6.30;;;;;;;;;;753571;78;26333;-70
2022/03/31 01:05:45;;;;;;;18.87;6.75;;;;;;;;;;740718;80;26339;-72
2022/03/31 01:06:49;;;;;;;19.05;6.70;;;;;;;;;;753642;78;26317;-71
2022/03/31 01:07:55;;;;;;;16.55;6.28;;;;;;;;;;740688;80;26713;-71
2022/03/31 01:08:59;;;;;;;12.10;5.90;;;;;;;;;;753612;78;26248;-71
2022/03/31 01:13:33;;;;;;;15.28;6.75;;;;;;;;;;753396;79;26309;-72
2022/03/31 01:14:36;;;;;;;16.12;6.53;;;;;;;;;;752482;79;26308;-71
2022/03/31 01:15:39;;;;;;;17.50;6.25;;;;;;;;;;766081;77;26704;-73
2022/03/31 01:16:42;;;;;;;14.50;5.87;;;;;;;;;;766394;77;26299;-73
2022/03/31 01:24:59;;;;;;;18.77;7.17;;;;;;;;;;767162;77;26231;-72
2022/03/31 01:26:10;;;;;;;15.00;6.42;;;;;;;;;;750134;79;26257;-72
2022/03/31 01:27:18;;;;;;;16.52;6.95;;;;;;;;;;749313;79;26659;-71
2022/03/31 01:28:27;;;;;;;24.75;7.20;;;;;;;;;;749134;79;26719;-71
2022/03/31 01:33:04;;;;;;;14.90;6.10;;;;;;;;;;736495;80;26146;-71
2022/03/31 01:34:09;;;;;;;15.93;6.85;;;;;;;;;;736485;80;26293;-72
2022/03/31 01:35:14;;;;;;;12.78;6.17;;;;;;;;;;736506;80;26242;-71
2022/03/31 01:36:17;;;;;;;16.15;6.47;;;;;;;;;;736487;80;26234;-72
2022/03/31 01:37:20;;;;;;;21.80;7.08;;;;;;;;;;736537;80;26242;-71
2022/03/31 01:38:26;;;;;;;13.43;6.65;;;;;;;;;;736565;80;26696;-72
2022/03/31 01:43:22;;;;;;;9.73;6.30;;;;;;;;;;734420;81;26188;-72
2022/03/31 01:44:26;;;;;;;16.55;6.95;;;;;;;;;;734351;81;26267;-72
2022/03/31 01:45:30;;;;;;;18.67;7.87;;;;;;;;;;734279;81;26706;-72
2022/03/31 01:46:37;;;;;;;13.72;7.10;;;;;;;;;;734849;78;26266;-71
2022/03/31 01:47:40;;;;;;;15.08;6.30;;;;;;;;;;734442;81;26364;-71
2022/03/31 01:48:45;;;;;;;13.50;6.25;;;;;;;;;;734404;81;26264;-72
2022/03/31 01:53:18;;;;;;;11.60;6.17;;;;;;;;;;742109;80;26214;-73
2022/03/31 01:54:22;;;;;;;10.60;6.60;;;;;;;;;;742085;80;26400;-70
2022/03/31 01:55:25;;;;;;;12.20;6.37;;;;;;;;;;742069;80;26781;-72
2022/03/31 01:56:28;;;;;;;14.47;7.33;;;;;;;;;;742076;80;26729;-71
2022/03/31 01:57:31;;;;;;;14.43;6.78;;;;;;;;;;742059;80;26724;-72
2022/03/31 01:58:34;;;;;;;13.05;6.45;;;;;;;;;;742083;80;26701;-71
2022/03/31 02:03:33;;;;;;;14.58;7.25;;;;;;;;;;760380;78;26242;-71
2022/03/31 02:04:40;;;;;;;13.53;6.40;;;;;;;;;;760318;78;26404;-71
2022/03/31 02:13:08;;;;;;;18.10;6.33;;;;;;;;;;718823;82;26229;-72
2022/03/31 02:14:22;;;;;;;15.65;6.10;;;;;;;;;;718714;82;26354;-71
2022/03/31 02:15:29;;;;;;;14.75;5.65;;;;;;;;;;752386;79;26331;-72
2022/03/31 02:16:31;;;;;;;15.20;5.95;;;;;;;;;;752466;79;26684;-70
2022/03/31 02:17:36;;;;;;;15.48;5.72;;;;;;;;;;752296;78;26779;-71
2022/03/31 02:18:41;;;;;;;16.75;6.17;;;;;;;;;;742123;80;26780;-71
2022/03/31 02:23:30;;;;;;;19.67;6.67;;;;;;;;;;760946;78;26250;-71
2022/03/31 02:24:35;;;;;;;13.68;6.35;;;;;;;;;;745315;79;26257;-72
2022/03/31 02:25:38;;;;;;;18.70;7.17;;;;;;;;;;750881;79;26258;-71
2022/03/31 02:26:41;;;;;;;13.32;6.12;;;;;;;;;;751136;79;26256;-71
2022/03/31 02:27:44;;;;;;;17.77;6.90;;;;;;;;;;751223;79;26735;-71
2022/03/31 02:28:47;;;;;;;13.62;6.75;;;;;;;;;;750288;79;26259;-73
2022/03/31 02:32:00;;;;;;;24.25;6.87;;;;;;;;;;750538;79;26241;-71
2022/03/31 02:33:04;;;;;;;16.10;6.20;;;;;;;;;;759097;78;26715;-72
2022/03/31 02:34:07;;;;;;;22.58;6.53;;;;;;;;;;759013;78;26255;-74
2022/03/31 02:35:11;;;;;;;18.57;6.95;;;;;;;;;;759116;78;26255;-72
2022/03/31 02:36:16;;;;;;;18.05;6.62;;;;;;;;;;759009;78;26263;-72
2022/03/31 02:37:19;;;;;;;15.08;6.83;;;;;;;;;;759198;78;26251;-72
2022/03/31 02:38:23;;;;;;;18.60;7.15;;;;;;;;;;759166;78;26263;-75
2022/03/31 02:43:20;;;;;;;16.50;6.42;;;;;;;;;;771848;77;26193;-72
2022/03/31 02:44:24;;;;;;;18.95;5.78;;;;;;;;;;771875;77;26733;-73
2022/03/31 02:45:28;;;;;;;18.90;6.40;;;;;;;;;;772089;77;26287;-76
2022/03/31 02:46:31;;;;;;;15.10;7.40;;;;;;;;;;772408;77;26232;-73
2022/03/31 02:47:35;;;;;;;16.75;7.28;;;;;;;;;;772221;77;26315;-73
2022/03/31 02:48:49;;;;;;;14.03;7.42;;;;;;;;;;772449;77;26275;-73
2022/03/31 02:52:16;;;;;;;15.45;6.85;;;;;;;;;;781478;76;26186;-72
2022/03/31 02:58:33;;;;;;;12.98;6.83;;;;;;;;;;754410;78;26176;-73
2022/03/31 03:02:07;;;;;;;15.88;7.53;;;;;;;;;;769113;77;26220;-75
2022/03/31 03:03:11;;;;;;;11.60;7.58;;;;;;;;;;782664;76;26322;-74
2022/03/31 03:04:15;;;;;;;17.40;8.18;;;;;;;;;;782159;76;26244;-71
2022/03/31 03:05:17;;;;;;;15.38;7.37;;;;;;;;;;771236;76;26241;-72
2022/03/31 03:06:26;;;;;;;17.77;8.00;;;;;;;;;;769159;76;26742;-71
2022/03/31 03:07:38;;;;;;;13.00;7.55;;;;;;;;;;791273;75;26707;-71
2022/03/31 03:08:41;;;;;;;13.60;8.10;;;;;;;;;;790525;75;26303;-72
2022/03/31 03:11:47;;;;;;;13.68;7.60;;;;;;;;;;764692;77;26268;-71
2022/03/31 03:12:52;;;;;;;18.02;7.60;;;;;;;;;;764498;77;26236;-71
2022/03/31 03:13:54;;;;;;;13.00;7.30;;;;;;;;;;764509;77;26706;-72
2022/03/31 03:14:59;;;;;;;9.30;7.47;;;;;;;;;;754010;78;26338;-71
2022/03/31 03:16:08;;;;;;;16.35;7.55;;;;;;;;;;742409;80;26794;-73
2022/03/31 03:17:13;;;;;;;14.80;7.10;;;;;;;;;;749143;79;26263;-70
2022/03/31 03:18:18;;;;;;;14.35;7.58;;;;;;;;;;764554;77;26241;-73
2022/03/31 03:22:59;;;;;;;17.65;7.65;;;;;;;;;;751847;79;26256;-72
2022/03/31 03:24:03;;;;;;;14.50;8.25;;;;;;;;;;751828;79;26252;-72
2022/03/31 03:25:08;;;;;;;14.90;7.62;;;;;;;;;;751887;79;26307;-72
2022/03/31 03:26:11;;;;;;;12.37;8.08;;;;;;;;;;751856;79;26252;-71
2022/03/31 03:27:15;;;;;;;14.05;7.90;;;;;;;;;;751856;78;26322;-72
2022/03/31 03:28:20;;;;;;;12.00;7.42;;;;;;;;;;751829;79;26314;-71
2022/03/31 03:31:38;;;;;;;14.63;7.45;;;;;;;;;;761612;78;26229;-71
2022/03/31 03:32:42;;;;;;;11.50;7.50;;;;;;;;;;761591;78;26231;-73
2022/03/31 03:33:46;;;;;;;10.85;7.55;;;;;;;;;;761619;78;26240;-72
2022/03/31 03:34:51;;;;;;;11.63;7.37;;;;;;;;;;758560;78;26257;-72
2022/03/31 03:35:55;;;;;;;12.50;7.08;;;;;;;;;;761737;78;26689;-72
2022/03/31 03:37:00;;;;;;;16.70;8.00;;;;;;;;;;762179;78;26229;-73
2022/03/31 03:38:17;;;;;;;14.55;7.33;;;;;;;;;;762061;78;26252;-71
2022/03/31 03:53:03;;;;;;;11.95;6.97;;;;;;;;;;762622;78;26641;-70
2022/03/31 03:56:23;;;;;;;18.07;7.85;;;;;;;;;;762832;78;26187;-72
2022/03/31 03:57:28;;;;;;;13.70;8.50;;;;;;;;;;793596;75;26273;-72
2022/03/31 04:02:09;;;;;;;20.32;9.15;;;;;;;;;;764565;77;26651;-71
2022/03/31 04:03:13;;;;;;;12.18;8.03;;;;;;;;;;764624;77;26393;-71
2022/03/31 04:04:16;;;;;;;13.20;8.28;;;;;;;;;;764593;77;26238;-71
2022/03/31 04:05:22;;;;;;;13.15;8.45;;;;;;;;;;764521;77;26678;-68
2022/03/31 04:06:27;;;;;;;15.18;8.93;;;;;;;;;;764734;77;26303;-70
2022/03/31 04:07:31;;;;;;;15.58;9.23;;;;;;;;;;765190;77;26288;-68
2022/03/31 04:12:29;;;;;;;12.90;9.10;;;;;;;;;;764621;77;26155;-68
2022/03/31 04:13:42;;;;;;;12.13;8.73;;;;;;;;;;764597;77;26315;-69
2022/03/31 04:14:45;;;;;;;19.27;9.65;;;;;;;;;;764583;77;26230;-68
2022/03/31 04:15:50;;;;;;;16.23;9.00;;;;;;;;;;764208;77;26316;-67
2022/03/31 04:17:16;;;;;;;16.90;9.38;;;;;;;;;;764477;77;26357;-69
2022/03/31 04:18:21;;;;;;;13.98;9.10;;;;;;;;;;764519;77;26295;-67
2022/03/31 04:21:28;;;;;;;14.53;8.65;;;;;;;;;;764792;77;26180;-68
2022/03/31 04:22:34;;;;;;;14.83;8.33;;;;;;;;;;764603;77;26238;-69
2022/03/31 04:23:37;;;;;;;16.75;8.33;;;;;;;;;;764478;77;26698;-68
2022/03/31 04:24:40;;;;;;;15.60;9.95;;;;;;;;;;764527;77;26238;-67
2022/03/31 04:25:43;;;;;;;13.30;9.63;;;;;;;;;;764608;77;26238;-67
2022/03/31 04:27:05;;;;;;;31.37;24.02;;;;;;;;;;764535;77;26338;-67
2022/03/31 04:33:47;;;;;;;12.65;7.87;;;;;;;;;;764618;77;26600;-67
2022/03/31 04:34:50;;;;;;;16.42;11.18;;;;;;;;;;764570;77;26781;-67
2022/03/31 04:35:57;;;;;;;20.05;11.22;;;;;;;;;;764509;77;26246;-67
2022/03/31 04:37:02;;;;;;;15.43;9.65;;;;;;;;;;766656;77;26249;-68
2022/03/31 04:38:08;;;;;;;15.18;9.78;;;;;;;;;;766533;77;26253;-66
2022/03/31 04:41:59;;;;;;;11.78;9.13;;;;;;;;;;793612;75;26302;-65
2022/03/31 04:43:13;;;;;;;11.88;8.30;;;;;;;;;;793575;75;26726;-66
2022/03/31 04:44:19;;;;;;;16.48;9.00;;;;;;;;;;793634;75;26290;-67
2022/03/31 04:45:24;;;;;;;17.05;8.73;;;;;;;;;;793538;74;26219;-68
2022/03/31 04:46:28;;;;;;;20.55;9.40;;;;;;;;;;793630;75;26723;-67
2022/03/31 04:47:33;;;;;;;14.90;9.40;;;;;;;;;;793568;75;26235;-67
2022/03/31 04:50:35;;;;;;;13.98;9.85;;;;;;;;;;793053;75;26627;-66
2022/03/31 04:51:40;;;;;;;15.08;8.95;;;;;;;;;;792904;75;26224;-66
2022/03/31 04:52:43;;;;;;;14.03;9.30;;;;;;;;;;792903;75;26220;-65
2022/03/31 05:01:10;;;;;;;18.57;8.25;;;;;;;;;;772199;77;26227;-67
2022/03/31 05:02:16;;;;;;;15.68;8.28;;;;;;;;;;771825;77;26682;-67
2022/03/31 05:03:19;;;;;;;18.00;10.05;;;;;;;;;;772369;77;26672;-67
2022/03/31 05:04:24;;;;;;;15.72;9.50;;;;;;;;;;772089;77;26239;-67
2022/03/31 05:05:27;;;;;;;13.10;9.30;;;;;;;;;;767402;77;26260;-66
2022/03/31 05:06:31;;;;;;;13.48;9.60;;;;;;;;;;767334;77;26674;-68
2022/03/31 05:07:35;;;;;;;15.35;9.23;;;;;;;;;;767550;77;26242;-66
2022/03/31 05:11:09;;;;;;;16.25;9.20;;;;;;;;;;768470;77;26232;-67
2022/03/31 05:12:15;;;;;;;17.42;9.00;;;;;;;;;;767957;77;26787;-67
2022/03/31 05:13:18;;;;;;;14.65;9.53;;;;;;;;;;767191;77;26768;-67
2022/03/31 05:14:21;;;;;;;20.48;9.68;;;;;;;;;;767208;77;26689;-66
2022/03/31 05:22:38;;;;;;;15.00;9.10;;;;;;;;;;746168;79;26704;-66
2022/03/31 05:23:48;;;;;;;15.65;9.40;;;;;;;;;;745995;79;26274;-70
2022/03/31 05:24:52;;;;;;;16.87;9.18;;;;;;;;;;746270;79;26347;-67
2022/03/31 05:25:58;;;;;;;21.35;9.83;;;;;;;;;;746231;79;26290;-66
2022/03/31 05:27:00;;;;;;;20.95;9.65;;;;;;;;;;746179;79;26747;-66
2022/03/31 05:33:20;;;;;;;18.32;9.33;;;;;;;;;;737055;80;26180;-65
2022/03/31 05:34:27;;;;;;;14.75;8.38;;;;;;;;;;736940;80;26386;-67
2022/03/31 05:35:30;;;;;;;21.60;10.20;;;;;;;;;;736898;80;26335;-68
2022/03/31 05:36:51;;;;;;;16.87;8.60;;;;;;;;;;765600;77;26254;-69
2022/03/31 05:37:54;;;;;;;17.57;9.18;;;;;;;;;;764608;77;26779;-66
2022/03/31 05:41:05;;;;;;;20.08;9.90;;;;;;;;;;764783;77;26222;-66
2022/03/31 05:42:08;;;;;;;15.90;8.25;;;;;;;;;;758686;78;26268;-68
2022/03/31 05:43:13;;;;;;;14.87;8.98;;;;;;;;;;758641;78;26261;-68
2022/03/31 05:44:17;;;;;;;21.42;9.93;;;;;;;;;;742343;80;26288;-68
2022/03/31 05:45:19;;;;;;;21.23;9.38;;;;;;;;;;752625;79;26273;-69
2022/03/31 05:46:24;;;;;;;18.20;8.83;;;;;;;;;;742329;80;26278;-69
2022/03/31 05:47:29;;;;;;;22.40;9.08;;;;;;;;;;742228;80;26273;-69
2022/03/31 05:53:03;;;;;;;15.90;7.05;;;;;;;;;;742513;80;26218;-69
2022/03/31 05:54:13;;;;;;;17.73;7.60;;;;;;;;;;780090;76;26711;-67
2022/03/31 05:55:18;;;;;;;25.57;7.25;;;;;;;;;;780110;76;26303;-69
2022/03/31 05:56:22;;;;;;;23.83;7.87;;;;;;;;;;780234;76;26269;-70
2022/03/31 05:57:27;;;;;;;20.52;9.18;;;;;;;;;;780155;76;26676;-68
2022/03/31 06:00:32;;;;;;;19.80;7.95;;;;;;;;;;781187;76;26664;-70
2022/03/31 06:01:35;;;;;;;22.90;8.48;;;;;;;;;;742380;80;26394;-70
2022/03/31 06:11:47;;;;;;;22.35;7.10;;;;;;;;;;782300;76;26280;-67
2022/03/31 06:12:57;;;;;;;14.98;7.33;;;;;;;;;;793709;75;26742;-67
2022/03/31 06:14:00;;;;;;;20.52;7.50;;;;;;;;;;793615;75;26220;-67
2022/03/31 06:15:06;;;;;;;18.52;7.37;;;;;;;;;;793284;75;26228;-67
2022/03/31 06:16:30;;;;;;;17.40;7.20;;;;;;;;;;791015;75;26220;-67
2022/03/31 06:17:38;;;;;;;19.40;7.50;;;;;;;;;;793741;75;26281;-68
2022/03/31 06:20:53;;;;;;;23.52;7.62;;;;;;;;;;753141;79;26165;-69
2022/03/31 06:21:58;;;;;;;15.35;7.30;;;;;;;;;;753105;79;26250;-67
2022/03/31 06:23:03;;;;;;;19.17;8.38;;;;;;;;;;752839;78;26256;-69
2022/03/31 06:24:08;;;;;;;18.52;8.00;;;;;;;;;;752695;79;26252;-69
2022/03/31 06:25:14;;;;;;;20.17;7.97;;;;;;;;;;739170;80;26285;-69
2022/03/31 06:26:17;;;;;;;16.62;7.70;;;;;;;;;;752218;79;26329;-68
2022/03/31 06:27:21;;;;;;;18.57;7.72;;;;;;;;;;751827;79;26393;-68
2022/03/31 06:30:30;;;;;;;23.65;8.65;;;;;;;;;;753600;79;26178;-68
2022/03/31 06:31:33;;;;;;;21.07;8.73;;;;;;;;;;739048;79;26262;-69
2022/03/31 06:32:38;;;;;;;22.02;8.45;;;;;;;;;;737609;80;26277;-69
2022/03/31 06:33:44;;;;;;;20.68;7.70;;;;;;;;;;738202;80;26339;-69
2022/03/31 06:34:47;;;;;;;23.90;8.80;;;;;;;;;;737434;80;26285;-67
2022/03/31 06:35:55;;;;;;;21.93;8.73;;;;;;;;;;736630;80;26899;-69
2022/03/31 06:37:00;;;;;;;30.62;8.23;;;;;;;;;;736452;80;26701;-67
2022/03/31 06:40:19;;;;;;;16.10;6.95;;;;;;;;;;736801;80;26275;-68
2022/03/31 06:41:30;;;;;;;19.32;6.30;;;;;;;;;;736526;80;26274;-67
2022/03/31 06:42:35;;;;;;;21.35;6.65;;;;;;;;;;736490;80;26339;-67
2022/03/31 06:43:38;;;;;;;18.73;6.72;;;;;;;;;;736505;80;26749;-70
2022/03/31 06:44:42;;;;;;;22.75;9.90;;;;;;;;;;738245;80;26343;-70
2022/03/31 06:45:46;;;;;;;23.95;8.05;;;;;;;;;;744712;79;26286;-70
2022/03/31 06:46:49;;;;;;;24.80;8.15;;;;;;;;;;737238;80;26366;-68
2022/03/31 07:00:46;;;;;;;23.22;9.73;;;;;;;;;;744578;80;26190;-66
2022/03/31 07:01:52;;;;;;;21.82;9.33;;;;;;;;;;745115;80;26277;-69
2022/03/31 07:02:55;;;;;;;20.80;9.08;;;;;;;;;;744999;80;26269;-67
2022/03/31 07:04:00;;;;;;;19.42;9.08;;;;;;;;;;744702;80;26308;-67
2022/03/31 07:05:19;;;;;;;18.30;9.75;;;;;;;;;;743806;80;26274;-67
2022/03/31 07:06:23;;;;;;;16.82;8.68;;;;;;;;;;743529;80;26316;-66
2022/03/31 07:11:24;;;;;;;20.25;7.42;;;;;;;;;;779961;76;26699;-67
2022/03/31 07:12:31;;;;;;;17.55;8.58;;;;;;;;;;780321;76;26257;-67
2022/03/31 07:13:36;;;;;;;17.50;8.43;;;;;;;;;;779875;76;26244;-67
2022/03/31 07:14:38;;;;;;;23.25;9.13;;;;;;;;;;779926;76;26302;-68
2022/03/31 07:15:45;;;;;;;26.48;9.25;;;;;;;;;;779860;76;26736;-67
2022/03/31 07:16:51;;;;;;;25.60;11.65;;;;;;;;;;763790;77;26720;-67
2022/03/31 07:21:38;;;;;;;22.58;10.13;;;;;;;;;;776340;76;26350;-66
2022/03/31 07:22:44;;;;;;;23.60;9.05;;;;;;;;;;776304;76;26288;-68
2022/03/31 07:23:49;;;;;;;19.70;7.55;;;;;;;;;;776342;76;26653;-65
2022/03/31 07:24:58;;;;;;;25.65;8.78;;;;;;;;;;766772;77;26312;-65
2022/03/31 07:26:06;;;;;;;20.23;7.92;;;;;;;;;;768600;76;26252;-65
2022/03/31 07:31:21;;;;;;;22.48;9.73;;;;;;;;;;772929;77;26192;-67
2022/03/31 07:32:25;;;;;;;23.65;7.65;;;;;;;;;;772934;77;26743;-65
2022/03/31 07:33:28;;;;;;;19.77;7.33;;;;;;;;;;772974;77;26321;-68
2022/03/31 07:34:32;;;;;;;20.92;7.25;;;;;;;;;;772905;77;26255;-67
2022/03/31 07:35:37;;;;;;;21.42;7.12;;;;;;;;;;773022;77;26301;-68
2022/03/31 07:36:49;;;;;;;17.73;7.22;;;;;;;;;;772932;77;26309;-66
2022/03/31 07:45:13;;;;;;;21.70;6.83;;;;;;;;;;771323;77;26207;-67
2022/03/31 07:46:18;;;;;;;18.60;6.40;;;;;;;;;;771240;76;26721;-69
2022/03/31 07:49:32;;;;;;;18.17;6.37;;;;;;;;;;774883;76;26688;-71
2022/03/31 07:50:37;;;;;;;21.97;6.30;;;;;;;;;;774750;76;26312;-72
2022/03/31 07:51:44;;;;;;;20.88;7.03;;;;;;;;;;774648;76;26702;-71
2022/03/31 07:52:46;;;;;;;21.80;6.92;;;;;;;;;;774666;76;26715;-73
2022/03/31 07:53:49;;;;;;;26.82;6.80;;;;;;;;;;759186;78;26717;-72
2022/03/31 07:54:53;;;;;;;21.30;7.55;;;;;;;;;;766625;76;26740;-71
2022/03/31 07:55:59;;;;;;;20.10;6.92;;;;;;;;;;781070;74;26234;-71
2022/03/31 07:57:04;;;;;;;20.40;6.85;;;;;;;;;;796057;74;26225;-72
2022/03/31 07:59:34;;;;;;;16.27;7.30;;;;;;;;;;779960;76;26256;-71
2022/03/31 08:00:38;;;;;;;20.95;7.12;;;;;;;;;;779929;76;26238;-72
2022/03/31 08:01:43;;;;;;;16.62;6.70;;;;;;;;;;769068;77;26731;-73
2022/03/31 08:02:49;;;;;;;21.25;6.35;;;;;;;;;;751845;77;26721;-73
2022/03/31 08:03:53;;;;;;;18.42;6.87;;;;;;;;;;766719;77;26246;-74
2022/03/31 08:04:56;;;;;;;21.75;7.10;;;;;;;;;;764841;77;26315;-72
2022/03/31 08:06:00;;;;;;;16.57;7.70;;;;;;;;;;767537;77;26242;-73
2022/03/31 08:07:03;;;;;;;14.25;6.90;;;;;;;;;;764730;77;26338;-71
2022/03/31 08:10:09;;;;;;;24.47;7.95;;;;;;;;;;777151;76;26658;-72
2022/03/31 08:11:12;;;;;;;27.42;7.17;;;;;;;;;;777016;76;26239;-71
2022/03/31 08:12:15;;;;;;;21.62;8.18;;;;;;;;;;764609;77;26752;-72
2022/03/31 08:13:24;;;;;;;21.45;7.22;;;;;;;;;;765439;76;26699;-72
2022/03/31 08:14:27;;;;;;;23.45;7.10;;;;;;;;;;769107;77;26316;-72
2022/03/31 08:15:30;;;;;;;22.37;6.47;;;;;;;;;;776834;76;26238;-71
2022/03/31 08:16:33;;;;;;;42.83;8.43;;;;;;;;;;776801;76;26277;-72
2022/03/31 08:21:05;;;;;;;25.05;7.70;;;;;;;;;;795436;74;26156;-74
2022/03/31 08:22:11;;;;;;;21.00;7.70;;;;;;;;;;795360;74;26286;-73
2022/03/31 08:23:14;;;;;;;22.17;6.87;;;;;;;;;;795422;74;26363;-71
2022/03/31 08:24:18;;;;;;;19.73;7.97;;;;;;;;;;795357;74;26220;-71
2022/03/31 08:25:22;;;;;;;20.43;5.53;;;;;;;;;;795365;74;26237;-70
2022/03/31 08:26:33;;;;;;;19.15;6.10;;;;;;;;;;795388;74;26309;-73
2022/03/31 08:30:02;;;;;;;24.72;7.00;;;;;;;;;;759536;78;26282;-70
2022/03/31 08:31:05;;;;;;;20.55;7.10;;;;;;;;;;760617;78;26705;-70
2022/03/31 08:32:09;;;;;;;25.17;6.80;;;;;;;;;;761297;78;26245;-71
2022/03/31 08:33:13;;;;;;;21.73;7.25;;;;;;;;;;761333;78;26269;-70
2022/03/31 08:34:19;;;;;;;20.17;7.25;;;;;;;;;;771483;76;26320;-72
2022/03/31 08:35:27;;;;;;;22.75;7.17;;;;;;;;;;758344;78;26734;-73
2022/03/31 08:39:57;;;;;;;30.05;6.92;;;;;;;;;;734492;79;26730;-72
2022/03/31 08:41:00;;;;;;;18.48;6.90;;;;;;;;;;766425;77;26252;-72
2022/03/31 08:42:10;;;;;;;20.50;6.37;;;;;;;;;;766386;77;26321;-71
2022/03/31 08:43:13;;;;;;;16.42;5.87;;;;;;;;;;764772;77;26301;-73
2022/03/31 08:44:16;;;;;;;23.73;6.50;;;;;;;;;;761491;78;26248;-72
2022/03/31 08:45:20;;;;;;;19.70;6.00;;;;;;;;;;761460;78;26766;-71
2022/03/31 08:46:25;;;;;;;26.00;7.65;;;;;;;;;;761417;78;26247;-72
2022/03/31 08:50:59;;;;;;;20.02;6.40;;;;;;;;;;750580;79;26701;-71
2022/03/31 08:54:17;;;;;;;18.45;6.00;;;;;;;;;;750820;79;26234;-73
2022/03/31 08:55:20;;;;;;;22.45;6.87;;;;;;;;;;754092;79;26316;-71
2022/03/31 08:56:23;;;;;;;21.07;5.85;;;;;;;;;;754094;79;26372;-73
2022/03/31 09:00:47;;;;;;;18.82;6.45;;;;;;;;;;768596;77;26251;-73
2022/03/31 09:01:55;;;;;;;17.60;6.00;;;;;;;;;;769650;77;26251;-73
2022/03/31 09:03:04;;;;;;;19.07;6.00;;;;;;;;;;769422;77;26241;-72
2022/03/31 09:04:07;;;;;;;15.50;5.40;;;;;;;;;;768815;77;26728;-73
2022/03/31 09:05:15;;;;;;;17.05;5.47;;;;;;;;;;768185;76;26326;-72
2022/03/31 09:06:22;;;;;;;20.43;6.60;;;;;;;;;;751618;79;26342;-72
2022/03/31 09:11:00;;;;;;;10.30;4.67;;;;;;;;;;739114;79;26261;-72
2022/03/31 09:12:02;;;;;;;19.02;5.58;;;;;;;;;;740165;78;26803;-73
2022/03/31 09:13:07;;;;;;;16.95;5.45;;;;;;;;;;744781;78;26307;-73
2022/03/31 09:14:11;;;;;;;15.35;5.80;;;;;;;;;;738649;80;26361;-72
2022/03/31 09:20:36;;;;;;;14.63;5.47;;;;;;;;;;777359;76;26186;-74
2022/03/31 09:21:52;;;;;;;19.23;5.35;;;;;;;;;;770318;76;26723;-72
2022/03/31 09:22:56;;;;;;;20.30;5.97;;;;;;;;;;777251;76;26732;-73
2022/03/31 09:24:02;;;;;;;17.20;7.17;;;;;;;;;;766461;77;26306;-74
2022/03/31 09:25:10;;;;;;;18.32;5.90;;;;;;;;;;770265;76;26258;-71
2022/03/31 09:26:16;;;;;;;23.98;5.92;;;;;;;;;;780183;76;26758;-74
2022/03/31 09:30:49;;;;;;;21.65;5.53;;;;;;;;;;781049;76;26272;-72
2022/03/31 09:32:08;;;;;;;12.80;5.28;;;;;;;;;;780943;76;26326;-72
2022/03/31 09:33:10;;;;;;;16.75;6.53;;;;;;;;;;780833;76;26255;-74
2022/03/31 09:34:15;;;;;;;13.62;5.83;;;;;;;;;;769781;77;26263;-74
2022/03/31 09:35:30;;;;;;;19.40;6.50;;;;;;;;;;772747;76;26260;-73
2022/03/31 09:36:34;;;;;;;17.15;5.67;;;;;;;;;;767779;77;26274;-73
2022/03/31 09:41:33;;;;;;;21.82;6.28;;;;;;;;;;713676;82;26306;-73
2022/03/31 09:42:36;;;;;;;19.02;6.33;;;;;;;;;;702206;84;26320;-73
2022/03/31 09:43:42;;;;;;;15.10;5.83;;;;;;;;;;723176;80;26375;-73
2022/03/31 09:44:58;;;;;;;17.15;5.87;;;;;;;;;;737242;80;26351;-73
2022/03/31 09:46:04;;;;;;;14.05;5.08;;;;;;;;;;742219;79;26407;-74
2022/03/31 09:49:36;;;;;;;19.73;5.00;;;;;;;;;;752478;79;26250;-73
2022/03/31 09:50:40;;;;;;;17.25;5.58;;;;;;;;;;739523;80;26392;-72
2022/03/31 09:52:02;;;;;;;14.63;5.05;;;;;;;;;;752312;79;26728;-72
2022/03/31 09:53:09;;;;;;;17.42;4.97;;;;;;;;;;752581;79;26270;-74
2022/03/31 09:54:16;;;;;;;24.30;5.78;;;;;;;;;;738126;80;26285;-74
2022/03/31 09:55:18;;;;;;;19.95;5.97;;;;;;;;;;739906;80;26277;-73
2022/03/31 09:56:25;;;;;;;22.17;5.50;;;;;;;;;;750554;79;26266;-74
2022/03/31 09:59:45;;;;;;;21.40;5.87;;;;;;;;;;768047;77;26270;-72
2022/03/31 10:00:49;;;;;;;14.78;5.10;;;;;;;;;;754772;78;26807;-74
2022/03/31 10:01:53;;;;;;;16.52;5.95;;;;;;;;;;754669;78;26323;-74
2022/03/31 10:05:11;;;;;;;18.77;6.15;;;;;;;;;;754741;78;26197;-73
2022/03/31 10:06:15;;;;;;;28.55;6.60;;;;;;;;;;767735;77;26267;-73
2022/03/31 10:09:54;;;;;;;15.93;5.17;;;;;;;;;;776772;76;26771;-73
2022/03/31 10:10:58;;;;;;;16.87;5.70;;;;;;;;;;776332;76;26314;-73
2022/03/31 10:12:22;;;;;;;17.63;5.03;;;;;;;;;;776436;76;26261;-73
2022/03/31 10:13:27;;;;;;;20.97;6.12;;;;;;;;;;776360;76;26680;-72
2022/03/31 10:14:33;;;;;;;29.00;7.10;;;;;;;;;;776394;76;26244;-72
2022/03/31 10:15:40;;;;;;;29.50;6.10;;;;;;;;;;776429;76;26311;-74
2022/03/31 10:16:50;;;;;;;16.20;5.75;;;;;;;;;;776342;76;26252;-72
2022/03/31 10:18:17;;;;;;;20.25;5.28;;;;;;;;;;776249;76;26259;-72
2022/03/31 10:19:28;;;;;;;19.82;5.62;;;;;;;;;;765488;77;26321;-72
2022/03/31 10:20:33;;;;;;;21.95;6.00;;;;;;;;;;776501;76;26327;-72
2022/03/31 10:21:36;;;;;;;19.02;5.75;;;;;;;;;;775764;76;26325;-73
2022/03/31 10:25:22;;;;;;;24.95;6.45;;;;;;;;;;775795;76;26313;-73
2022/03/31 10:26:27;;;;;;;21.37;6.55;;;;;;;;;;775805;76;26267;-72
2022/03/31 10:27:31;;;;;;;14.83;5.28;;;;;;;;;;775729;76;26726;-71
2022/03/31 10:28:37;;;;;;;16.90;6.08;;;;;;;;;;775870;76;26251;-74
2022/03/31 10:29:42;;;;;;;25.72;6.72;;;;;;;;;;775764;76;26305;-75
2022/03/31 10:30:59;;;;;;;30.20;7.17;;;;;;;;;;775779;76;26326;-73
2022/03/31 10:32:03;;;;;;;22.75;7.05;;;;;;;;;;775842;76;26740;-73
2022/03/31 10:33:15;;;;;;;14.43;5.97;;;;;;;;;;775856;76;26310;-74
2022/03/31 10:34:18;;;;;;;19.85;6.37;;;;;;;;;;776429;76;26759;-74
2022/03/31 10:35:23;;;;;;;22.17;7.10;;;;;;;;;;776962;76;26251;-74
2022/03/31 10:36:27;;;;;;;18.55;5.92;;;;;;;;;;772770;76;26264;-71
2022/03/31 10:37:34;;;;;;;18.92;6.17;;;;;;;;;;774596;76;26729;-72
2022/03/31 10:38:38;;;;;;;17.92;6.22;;;;;;;;;;775791;76;26252;-71
2022/03/31 10:39:42;;;;;;;18.77;5.80;;;;;;;;;;775889;76;26322;-72
2022/03/31 10:40:49;;;;;;;17.17;5.95;;;;;;;;;;774796;76;26276;-72
2022/03/31 10:42:01;;;;;;;13.30;5.80;;;;;;;;;;775838;76;26701;-72
2022/03/31 10:43:11;;;;;;;20.50;7.17;;;;;;;;;;775361;76;26782;-73
2022/03/31 10:44:17;;;;;;;19.92;6.10;;;;;;;;;;775774;76;26254;-74
2022/03/31 10:45:20;;;;;;;18.83;6.13;;;;;;;;;;775855;76;26301;-71
2022/03/31 10:46:28;;;;;;;16.23;6.03;;;;;;;;;;775828;76;27313;-71